Metar Aviation Weather Data ENAL

4°C Temp
3°C Dewpoint
% Humidity
Temperature
3 KM/H
2 MPH
2 KTS
200°
South South
West

Wind Speed
Overcast
Conditions
Pressure 1017.92 (hPa) - 30.06 (in)
Visibility 6.2 (mi) - 10 (km)

Current Conditions
ENAL
Metar :ENAL 210250Z AUTO 20002KT 9999 OVC032/// 04/03 Q1018
Mon 21st October 04:50 am

  Metar Aviation API Data Provided by https://www.checkwx.com/ PHP scripts by weather34.com ©2019